| time (UTC) | temp F | wind direction | speed knots | gust knots | rain 1hr in | rain 24hr in | rain mn in | humidity % | barometer mb |
| 20260508023643 | 69 | 95 | 2.6 | 2.6 | 0.00 | 0.00 | 0.00 | 76 | 1015.0 |
| 20260508020642 | 69 | 95 | 2.6 | 2.6 | 0.00 | 0.00 | 0.00 | 74 | 1015.0 |
| 20260508013641 | 70 | 95 | 2.6 | 2.6 | 0.00 | 0.00 | 0.00 | 71 | 1014.0 |
| 20260508010640 | 70 | 95 | 2.6 | 2.6 | 0.00 | 0.00 | 0.00 | 71 | 1013.0 |
| 20260508003639 | 69 | 95 | 2.6 | 2.6 | 0.00 | 0.00 | 0.00 | 71 | 1013.0 |
| 20260508000638 | 69 | 95 | 2.6 | 2.6 | 0.00 | 0.00 | 0.00 | 73 | 1011.0 |
| 20260507233637 | 74 | 220 | 7.8 | 0.0 | 0.00 | 0.00 | 0.00 | 63 | 1011.0 |
| 20260507230636 | 74 | 220 | 7.8 | 0.0 | 0.00 | 0.00 | 0.00 | 67 | 1011.0 |
| 20260507223635 | 74 | 295 | 4.3 | 2.6 | 0.00 | 0.00 | 0.00 | 72 | 1010.0 |
| 20260507220634 | 74 | 295 | 4.3 | 2.6 | 0.00 | 0.00 | 0.00 | 72 | 1010.0 |
| 20260507213633 | 75 | 295 | 4.3 | 2.6 | 0.00 | 0.00 | 0.00 | 72 | 1009.0 |
| 20260507210632 | 76 | 295 | 4.3 | 2.6 | 0.00 | 0.00 | 0.00 | 72 | 1009.0 |
| 20260507203631 | 76 | 295 | 4.3 | 2.6 | 0.00 | 0.00 | 0.00 | 72 | 1009.0 |
| 20260507200630 | 76 | 295 | 4.3 | 2.6 | 0.00 | 0.00 | 0.00 | 72 | 1009.0 |
| 20260507193628 | 77 | 295 | 4.3 | 2.6 | 0.00 | 0.00 | 0.00 | 72 | 1009.0 |
| 20260507190627 | 77 | 295 | 4.3 | 2.6 | 0.00 | 0.00 | 0.00 | 72 | 1010.0 |
| 20260507183626 | 77 | 295 | 4.3 | 2.6 | 0.00 | 0.00 | 0.00 | 72 | 1010.0 |
| 20260507180625 | 77 | 295 | 4.3 | 2.6 | 0.00 | 0.00 | 0.00 | 72 | 1011.0 |
| 20260507173624 | 77 | 295 | 4.3 | 2.6 | 0.00 | 0.00 | 0.00 | 72 | 1012.0 |
| 20260507170624 | 77 | 295 | 4.3 | 2.6 | 0.00 | 0.00 | 0.00 | 72 | 1013.0 |
| 20260507163622 | 74 | 220 | 4.3 | 0.0 | 0.00 | 0.00 | 0.00 | 83 | 1013.0 |
| 20260507160621 | 74 | 299 | 4.3 | 2.6 | 0.00 | 0.00 | 0.00 | 83 | 1015.0 |
| 20260507153620 | 74 | 299 | 4.3 | 2.6 | 0.00 | 0.00 | 0.00 | 83 | 1015.0 |
| 20260507150619 | 73 | 299 | 4.3 | 2.6 | 0.00 | 0.00 | 0.00 | 83 | 1016.0 |
| 20260507143619 | 69 | 300 | 3.5 | 0.9 | 0.00 | 0.00 | 0.00 | 80 | 1015.0 |
| 20260507140618 | 69 | 300 | 3.5 | 0.9 | 0.00 | 0.00 | 0.00 | 80 | 1016.0 |
| 20260507133617 | 67 | 313 | 0.9 | 0.0 | 0.00 | 0.00 | 0.00 | 78 | 1016.0 |
| 20260507130616 | 67 | 313 | 1.7 | 0.0 | 0.00 | 0.00 | 0.00 | 77 | 1016.0 |
| 20260507123615 | 61 | 53 | 2.6 | 4.3 | 0.00 | 0.00 | 0.00 | 80 | 1015.0 |
| 20260507120614 | 61 | 53 | 2.6 | 4.3 | 0.00 | 0.00 | 0.00 | 80 | 1015.0 |
| 20260507113613 | 61 | 53 | 2.6 | 4.3 | 0.00 | 0.00 | 0.00 | 80 | 1015.0 |
| 20260507110612 | 61 | 53 | 2.6 | 4.3 | 0.00 | 0.00 | 0.00 | 80 | 1015.0 |
| 20260507103611 | 61 | 53 | 2.6 | 4.3 | 0.00 | 0.00 | 0.00 | 80 | 1015.0 |
| 20260507100610 | 61 | 53 | 2.6 | 4.3 | 0.00 | 0.00 | 0.00 | 80 | 1015.0 |
| 20260507093609 | 61 | 53 | 2.6 | 4.3 | 0.00 | 0.00 | 0.00 | 80 | 1015.0 |
| 20260507090608 | 61 | 53 | 2.6 | 4.3 | 0.00 | 0.00 | 0.00 | 80 | 1015.0 |
| 20260507083607 | 62 | 53 | 2.6 | 4.3 | 0.00 | 0.00 | 0.00 | 80 | 1015.0 |
| 20260507080607 | 62 | 53 | 2.6 | 4.3 | 0.00 | 0.00 | 0.00 | 80 | 1015.0 |
| 20260507073606 | 62 | 53 | 2.6 | 4.3 | 0.00 | 0.00 | 0.00 | 80 | 1015.0 |
| 20260507070605 | 62 | 53 | 2.6 | 4.3 | 0.00 | 0.00 | 0.00 | 80 | 1015.0 |
| 20260507063604 | 62 | 53 | 2.6 | 4.3 | 0.00 | 0.00 | 0.00 | 80 | 1015.0 |
| 20260507060603 | 62 | 53 | 2.6 | 4.3 | 0.00 | 0.00 | 0.00 | 80 | 1015.0 |
| 20260507053602 | 62 | 53 | 2.6 | 4.3 | 0.00 | 0.00 | 0.00 | 80 | 1015.0 |
| 20260507050601 | 62 | 53 | 2.6 | 4.3 | 0.00 | 0.00 | 0.00 | 80 | 1016.0 |
| 20260507043600 | 63 | 53 | 2.6 | 4.3 | 0.00 | 0.00 | 0.00 | 80 | 1016.0 |
| 20260507040557 | 63 | 53 | 2.6 | 4.3 | 0.00 | 0.00 | 0.00 | 80 | 1016.0 |
| 20260507033556 | 63 | 53 | 2.6 | 4.3 | 0.00 | 0.00 | 0.00 | 80 | 1016.0 |
| 20260507030554 | 64 | 53 | 2.6 | 4.3 | 0.00 | 0.00 | 0.00 | 80 | 1016.0 |